Time;durP1;ratioP1;P1;durP2;ratioP2;P2;SDS_P1;SDS_P2;PMS_P1;PMS_P2;Temp;Humidity;BMP_temperature;BMP_pressure;BME280_temperature;BME280_humidity;BME280_pressure;Samples;Min_cycle;Max_cycle;Signal;HPM_P1;HPM_P2
2023/11/07 00:00:39;;;;;;;14.48;8.52;;;;;;;;;;5016674;28;20105;-66
2023/11/07 00:03:04;;;;;;;16.73;9.25;;;;;;;;;;5015974;28;20379;-67
2023/11/07 00:05:30;;;;;;;19.33;10.30;;;;;;;;;;5016630;28;20108;-67
2023/11/07 00:07:55;;;;;;;18.00;10.73;;;;;;;;;;5017041;28;20032;-67
2023/11/07 00:10:21;;;;;;;16.08;9.63;;;;;;;;;;4998944;28;20045;-67
2023/11/07 00:12:49;;;;;;;14.18;8.63;;;;;;;;;;5016181;28;20026;-67
2023/11/07 00:15:14;;;;;;;14.60;8.57;;;;;;;;;;4998559;28;20045;-66
2023/11/07 00:17:39;;;;;;;12.48;8.05;;;;;;;;;;5016587;28;20450;-66
2023/11/07 00:20:05;;;;;;;14.18;8.63;;;;;;;;;;5016582;28;20513;-59
2023/11/07 00:22:31;;;;;;;11.73;8.43;;;;;;;;;;5016569;28;20121;-59
2023/11/07 00:24:57;;;;;;;13.68;9.35;;;;;;;;;;5016887;28;20025;-61
2023/11/07 00:27:22;;;;;;;13.77;8.73;;;;;;;;;;5016529;28;20030;-59
2023/11/07 00:29:48;;;;;;;15.38;8.68;;;;;;;;;;4999050;28;20041;-66
2023/11/07 00:32:13;;;;;;;15.45;9.52;;;;;;;;;;5016360;28;20030;-60
2023/11/07 00:34:42;;;;;;;15.05;8.88;;;;;;;;;;4998798;28;20026;-66
2023/11/07 00:37:08;;;;;;;14.82;9.57;;;;;;;;;;5016958;28;20390;-60
2023/11/07 00:39:34;;;;;;;14.55;9.02;;;;;;;;;;5016396;28;20105;-59
2023/11/07 00:41:59;;;;;;;12.98;9.18;;;;;;;;;;5015382;28;20056;-65
2023/11/07 00:44:25;;;;;;;16.52;9.55;;;;;;;;;;4979962;28;20376;-65
2023/11/07 00:46:51;;;;;;;15.10;9.05;;;;;;;;;;4975824;28;20563;-65
2023/11/07 00:49:17;;;;;;;15.75;8.52;;;;;;;;;;4975510;28;20053;-65
2023/11/07 00:51:43;;;;;;;12.90;8.80;;;;;;;;;;4977073;28;20375;-65
2023/11/07 00:54:10;;;;;;;12.25;8.43;;;;;;;;;;4976797;28;20093;-65
2023/11/07 00:56:35;;;;;;;13.98;8.60;;;;;;;;;;4977093;28;20063;-65
2023/11/07 00:59:02;;;;;;;16.65;8.65;;;;;;;;;;4977263;28;20069;-60
2023/11/07 01:01:30;;;;;;;14.27;8.57;;;;;;;;;;4977082;28;20424;-66
2023/11/07 01:03:56;;;;;;;14.15;8.30;;;;;;;;;;4976460;28;20052;-63
2023/11/07 01:06:21;;;;;;;14.45;8.68;;;;;;;;;;4977096;28;20470;-63
2023/11/07 01:08:47;;;;;;;12.73;8.23;;;;;;;;;;4977044;28;20057;-63
2023/11/07 01:11:12;;;;;;;11.93;8.07;;;;;;;;;;4976788;28;20030;-63
2023/11/07 01:13:38;;;;;;;12.73;8.02;;;;;;;;;;4977001;28;20034;-63
2023/11/07 01:16:04;;;;;;;12.65;8.00;;;;;;;;;;4959621;28;20114;-63
2023/11/07 01:18:31;;;;;;;15.07;7.80;;;;;;;;;;4976864;28;20019;-63
2023/11/07 01:20:57;;;;;;;13.30;7.57;;;;;;;;;;4975113;28;20431;-62
2023/11/07 01:23:23;;;;;;;13.25;7.85;;;;;;;;;;4976395;28;20027;-63
2023/11/07 01:25:48;;;;;;;13.95;8.75;;;;;;;;;;4976335;28;20050;-61
2023/11/07 01:28:15;;;;;;;14.43;7.50;;;;;;;;;;4975611;28;20039;-60
2023/11/07 01:30:40;;;;;;;10.93;7.93;;;;;;;;;;4976219;28;20039;-71
2023/11/07 01:33:06;;;;;;;13.25;7.78;;;;;;;;;;4976353;28;20038;-72
2023/11/07 01:35:31;;;;;;;12.13;7.95;;;;;;;;;;4976061;28;20374;-72
2023/11/07 01:37:57;;;;;;;12.82;7.75;;;;;;;;;;4976441;28;20035;-72
2023/11/07 01:40:22;;;;;;;14.18;7.63;;;;;;;;;;4976416;28;20023;-72
2023/11/07 01:42:50;;;;;;;14.65;8.02;;;;;;;;;;4976177;28;20027;-72
2023/11/07 01:45:16;;;;;;;12.23;7.47;;;;;;;;;;4958689;28;20034;-72
2023/11/07 01:47:45;;;;;;;12.02;8.23;;;;;;;;;;4975657;28;20065;-72
2023/11/07 01:50:11;;;;;;;12.65;7.65;;;;;;;;;;4975176;28;20030;-72
2023/11/07 01:52:37;;;;;;;17.73;8.68;;;;;;;;;;4974498;28;20548;-72
2023/11/07 01:55:02;;;;;;;14.70;9.15;;;;;;;;;;4974994;28;20035;-71
2023/11/07 01:57:28;;;;;;;17.10;9.02;;;;;;;;;;4976065;28;20023;-72
2023/11/07 01:59:53;;;;;;;14.55;8.32;;;;;;;;;;4974957;28;20416;-71
2023/11/07 02:02:19;;;;;;;15.13;7.50;;;;;;;;;;4958147;28;20099;-72
2023/11/07 02:04:46;;;;;;;14.90;8.75;;;;;;;;;;4975928;28;20022;-72
2023/11/07 02:07:12;;;;;;;11.90;7.68;;;;;;;;;;4974314;28;20035;-72
2023/11/07 02:09:38;;;;;;;11.15;7.68;;;;;;;;;;4975514;28;20030;-71
2023/11/07 02:12:04;;;;;;;11.20;7.43;;;;;;;;;;4958101;28;20435;-71
2023/11/07 02:14:30;;;;;;;10.50;7.15;;;;;;;;;;4973870;28;20398;-72
2023/11/07 02:16:56;;;;;;;12.23;7.65;;;;;;;;;;4958017;28;20034;-68
2023/11/07 02:19:21;;;;;;;12.27;7.50;;;;;;;;;;4974579;28;20030;-68
2023/11/07 02:21:47;;;;;;;11.52;7.50;;;;;;;;;;4975369;28;20027;-68
2023/11/07 02:24:13;;;;;;;13.50;7.10;;;;;;;;;;4974777;28;20034;-69
2023/11/07 02:26:38;;;;;;;10.75;6.80;;;;;;;;;;4973948;28;20030;-70
2023/11/07 02:29:05;;;;;;;12.15;7.57;;;;;;;;;;4975146;28;20110;-62
2023/11/07 02:31:33;;;;;;;14.10;8.25;;;;;;;;;;4975121;28;20038;-68
2023/11/07 02:33:59;;;;;;;12.20;8.73;;;;;;;;;;4973654;28;20057;-68
2023/11/07 02:36:24;;;;;;;11.98;7.28;;;;;;;;;;4977028;28;20455;-68
2023/11/07 02:38:50;;;;;;;11.10;7.47;;;;;;;;;;5014019;28;20025;-68
2023/11/07 02:41:15;;;;;;;9.15;6.97;;;;;;;;;;5014449;28;20061;-68
2023/11/07 02:43:40;;;;;;;9.50;7.00;;;;;;;;;;5014403;28;20042;-69
2023/11/07 02:46:06;;;;;;;11.57;8.07;;;;;;;;;;5014197;28;20102;-69
2023/11/07 02:48:33;;;;;;;13.55;7.50;;;;;;;;;;5014130;28;20038;-68
2023/11/07 02:50:59;;;;;;;12.70;7.72;;;;;;;;;;4996302;28;20037;-68
2023/11/07 02:53:24;;;;;;;10.73;7.47;;;;;;;;;;5014174;28;20034;-68
2023/11/07 02:55:50;;;;;;;12.73;7.60;;;;;;;;;;4996659;28;20053;-68
2023/11/07 02:58:15;;;;;;;12.25;7.55;;;;;;;;;;5014174;28;20069;-68
2023/11/07 03:00:41;;;;;;;8.65;6.72;;;;;;;;;;5013913;28;20030;-68
2023/11/07 03:03:06;;;;;;;15.65;7.22;;;;;;;;;;5014414;28;20057;-68
2023/11/07 03:05:32;;;;;;;10.13;6.35;;;;;;;;;;5015519;28;20029;-68
2023/11/07 03:07:58;;;;;;;10.65;6.40;;;;;;;;;;5018160;28;20543;-68
2023/11/07 03:10:23;;;;;;;13.00;6.65;;;;;;;;;;5017987;28;20129;-69
2023/11/07 03:12:49;;;;;;;11.20;6.57;;;;;;;;;;5018021;28;20084;-70
2023/11/07 03:15:15;;;;;;;9.18;6.53;;;;;;;;;;5017755;28;20030;-70
2023/11/07 03:17:41;;;;;;;10.13;6.38;;;;;;;;;;5017842;28;20029;-69
2023/11/07 03:20:06;;;;;;;10.40;6.13;;;;;;;;;;5000728;28;20018;-69
2023/11/07 03:22:32;;;;;;;10.30;5.85;;;;;;;;;;5017745;28;20396;-69
2023/11/07 03:24:57;;;;;;;10.40;6.22;;;;;;;;;;5000134;28;20120;-67
2023/11/07 03:27:22;;;;;;;8.27;5.70;;;;;;;;;;4999671;28;20014;-69
2023/11/07 03:29:48;;;;;;;8.27;5.53;;;;;;;;;;5017397;28;20026;-69
2023/11/07 03:32:13;;;;;;;9.38;5.43;;;;;;;;;;4999543;28;20038;-69
2023/11/07 03:34:40;;;;;;;10.88;5.90;;;;;;;;;;5017140;28;20025;-69
2023/11/07 03:37:06;;;;;;;10.05;5.43;;;;;;;;;;4999781;28;20057;-69
2023/11/07 03:39:31;;;;;;;8.93;5.45;;;;;;;;;;5017234;28;20060;-69
2023/11/07 03:41:56;;;;;;;11.55;6.20;;;;;;;;;;5017276;28;20030;-69
2023/11/07 03:44:22;;;;;;;10.88;6.65;;;;;;;;;;4999654;28;20061;-67
2023/11/07 03:46:47;;;;;;;7.45;5.75;;;;;;;;;;5017081;28;20038;-67
2023/11/07 03:49:13;;;;;;;11.30;6.13;;;;;;;;;;5017472;28;20034;-67
2023/11/07 03:51:40;;;;;;;10.88;6.63;;;;;;;;;;5016953;28;20088;-69
2023/11/07 03:54:05;;;;;;;13.25;6.95;;;;;;;;;;5016140;28;20084;-69
2023/11/07 03:56:31;;;;;;;11.05;6.40;;;;;;;;;;5016456;28;20424;-69
2023/11/07 03:58:56;;;;;;;9.45;5.25;;;;;;;;;;5016294;28;20034;-69
2023/11/07 04:01:21;;;;;;;6.28;5.10;;;;;;;;;;5016784;28;20073;-70
2023/11/07 04:03:47;;;;;;;9.10;5.72;;;;;;;;;;4998601;28;20101;-68
2023/11/07 04:06:12;;;;;;;6.82;5.07;;;;;;;;;;5017359;28;20397;-62
2023/11/07 04:08:37;;;;;;;8.23;5.18;;;;;;;;;;5016831;28;20389;-62
2023/11/07 04:11:03;;;;;;;7.78;5.30;;;;;;;;;;5017295;28;20113;-63
2023/11/07 04:13:29;;;;;;;8.45;5.30;;;;;;;;;;5016806;28;20034;-62
2023/11/07 04:15:57;;;;;;;7.18;5.07;;;;;;;;;;5017196;28;20026;-62
2023/11/07 04:18:23;;;;;;;7.47;4.85;;;;;;;;;;5016654;28;20038;-63
2023/11/07 04:20:52;;;;;;;9.73;6.13;;;;;;;;;;4998910;28;20038;-63
2023/11/07 04:23:18;;;;;;;11.32;6.47;;;;;;;;;;5016746;28;20088;-62
2023/11/07 04:25:43;;;;;;;7.57;5.22;;;;;;;;;;5015904;28;20400;-62
2023/11/07 04:28:09;;;;;;;9.93;6.43;;;;;;;;;;5016272;28;20038;-62
2023/11/07 04:30:35;;;;;;;10.27;6.15;;;;;;;;;;5016812;28;20033;-63
2023/11/07 04:33:00;;;;;;;12.10;6.93;;;;;;;;;;5016390;28;20026;-70
2023/11/07 04:35:26;;;;;;;12.85;7.35;;;;;;;;;;5016083;28;20048;-70
2023/11/07 04:37:51;;;;;;;10.88;7.22;;;;;;;;;;5016394;28;20021;-71
2023/11/07 04:40:18;;;;;;;13.45;6.97;;;;;;;;;;5015611;28;20116;-71
2023/11/07 04:42:44;;;;;;;13.82;6.80;;;;;;;;;;5016329;28;20482;-71
2023/11/07 04:45:11;;;;;;;12.45;6.90;;;;;;;;;;5016177;28;20026;-72
2023/11/07 04:47:37;;;;;;;15.75;9.02;;;;;;;;;;5015900;28;20042;-71
2023/11/07 04:50:02;;;;;;;40.95;14.80;;;;;;;;;;5016188;28;20152;-71
2023/11/07 04:52:27;;;;;;;42.80;15.75;;;;;;;;;;4997929;28;20029;-68
2023/11/07 04:54:53;;;;;;;52.25;18.08;;;;;;;;;;5015951;28;20129;-68
2023/11/07 04:57:18;;;;;;;51.40;16.58;;;;;;;;;;5014863;28;20116;-68
2023/11/07 04:59:43;;;;;;;47.88;15.60;;;;;;;;;;5014849;28;20057;-71
2023/11/07 05:02:10;;;;;;;51.85;16.65;;;;;;;;;;4997276;28;20037;-72
2023/11/07 05:04:35;;;;;;;42.95;14.90;;;;;;;;;;5014308;28;20026;-72
2023/11/07 05:07:01;;;;;;;27.33;13.50;;;;;;;;;;5014202;28;20056;-70
2023/11/07 05:09:27;;;;;;;29.63;15.35;;;;;;;;;;5014526;28;20517;-70
2023/11/07 05:11:52;;;;;;;61.20;29.15;;;;;;;;;;5014498;28;20053;-70
2023/11/07 05:14:17;;;;;;;217.85;89.78;;;;;;;;;;5014445;28;20030;-70
2023/11/07 05:16:43;;;;;;;218.18;91.85;;;;;;;;;;5014367;28;20026;-70
2023/11/07 05:19:08;;;;;;;197.38;83.70;;;;;;;;;;5014130;28;20026;-69
2023/11/07 05:21:35;;;;;;;145.57;59.75;;;;;;;;;;4995914;28;20138;-71
2023/11/07 05:24:02;;;;;;;100.63;46.28;;;;;;;;;;4998061;28;20061;-70
2023/11/07 05:26:28;;;;;;;72.55;37.38;;;;;;;;;;5015855;28;20113;-70
2023/11/07 05:28:53;;;;;;;48.28;26.70;;;;;;;;;;5014850;28;20073;-70
2023/11/07 05:31:19;;;;;;;35.25;18.63;;;;;;;;;;5015692;28;20110;-71
2023/11/07 05:33:44;;;;;;;35.65;17.75;;;;;;;;;;5015054;28;20397;-71
2023/11/07 05:36:10;;;;;;;31.08;15.50;;;;;;;;;;5015621;28;20038;-71
2023/11/07 05:38:36;;;;;;;27.75;14.90;;;;;;;;;;5015455;28;20084;-70
2023/11/07 05:41:01;;;;;;;33.03;15.30;;;;;;;;;;5015279;28;20014;-70
2023/11/07 05:43:27;;;;;;;31.58;15.23;;;;;;;;;;5015245;28;20359;-70
2023/11/07 05:45:52;;;;;;;32.00;16.17;;;;;;;;;;5015212;28;20034;-71
2023/11/07 05:48:24;;;;;;;30.65;15.88;;;;;;;;;;5015094;28;20050;-66
2023/11/07 05:50:50;;;;;;;30.88;15.95;;;;;;;;;;5014729;28;20049;-66
2023/11/07 05:53:15;;;;;;;25.42;14.68;;;;;;;;;;5014861;28;20034;-66
2023/11/07 05:55:43;;;;;;;49.67;25.55;;;;;;;;;;4997571;28;20540;-66
2023/11/07 05:58:08;;;;;;;20.13;12.52;;;;;;;;;;5015190;28;20362;-66
2023/11/07 06:00:40;;;;;;;23.08;14.07;;;;;;;;;;5015155;28;20026;-66
2023/11/07 06:03:05;;;;;;;27.27;13.75;;;;;;;;;;5014927;28;20034;-66
2023/11/07 06:05:31;;;;;;;23.35;13.23;;;;;;;;;;5014890;28;20022;-65
2023/11/07 06:07:58;;;;;;;23.40;11.27;;;;;;;;;;5012359;28;20057;-66
2023/11/07 06:10:23;;;;;;;18.90;10.60;;;;;;;;;;4994255;28;20121;-66
2023/11/07 06:12:49;;;;;;;15.55;9.68;;;;;;;;;;4994581;28;20062;-65
2023/11/07 06:15:14;;;;;;;20.33;12.23;;;;;;;;;;4995043;28;20067;-65
2023/11/07 06:17:40;;;;;;;19.85;12.25;;;;;;;;;;4994849;28;20033;-65
2023/11/07 06:20:08;;;;;;;21.02;11.95;;;;;;;;;;4995079;28;20034;-66
2023/11/07 06:22:34;;;;;;;29.05;14.70;;;;;;;;;;4995320;28;20367;-66
2023/11/07 06:24:59;;;;;;;23.70;14.30;;;;;;;;;;4994517;28;20041;-66
2023/11/07 06:27:25;;;;;;;26.67;15.27;;;;;;;;;;4977724;28;20034;-69
2023/11/07 06:29:50;;;;;;;24.38;15.68;;;;;;;;;;4994772;28;20045;-69
2023/11/07 06:32:15;;;;;;;29.33;16.30;;;;;;;;;;4994796;28;20383;-69
2023/11/07 06:34:41;;;;;;;26.77;16.10;;;;;;;;;;4994778;28;20057;-69
2023/11/07 06:37:12;;;;;;;25.05;15.55;;;;;;;;;;4975844;28;20108;-69
2023/11/07 06:39:38;;;;;;;45.60;23.95;;;;;;;;;;4975063;28;20081;-69
2023/11/07 06:42:04;;;;;;;72.47;30.17;;;;;;;;;;4993027;28;20427;-70
2023/11/07 06:44:29;;;;;;;82.15;31.45;;;;;;;;;;4993199;28;20062;-69
2023/11/07 06:46:56;;;;;;;59.92;25.10;;;;;;;;;;4993156;28;20085;-69
2023/11/07 06:49:22;;;;;;;53.88;22.20;;;;;;;;;;4993922;28;20061;-69
2023/11/07 06:51:47;;;;;;;45.08;19.45;;;;;;;;;;4993961;28;20035;-69
2023/11/07 06:54:13;;;;;;;46.75;20.52;;;;;;;;;;4994128;28;20069;-69
2023/11/07 06:56:38;;;;;;;51.70;24.27;;;;;;;;;;4976793;28;20030;-69
2023/11/07 06:59:03;;;;;;;45.30;24.73;;;;;;;;;;4977147;28;20058;-69
2023/11/07 07:01:30;;;;;;;28.85;17.02;;;;;;;;;;4994209;28;20084;-69
2023/11/07 07:03:55;;;;;;;26.15;15.35;;;;;;;;;;4960592;28;20035;-69
2023/11/07 07:06:23;;;;;;;25.83;14.00;;;;;;;;;;4994114;28;20057;-69
2023/11/07 07:08:48;;;;;;;21.75;13.25;;;;;;;;;;4994083;28;20046;-69
2023/11/07 07:11:14;;;;;;;24.75;14.10;;;;;;;;;;4994120;28;20019;-69
2023/11/07 08:02:41;;;;;;;8.23;5.45;;;;;;;;;;5009550;28;20056;-56
2023/11/07 08:05:14;;;;;;;13.18;6.65;;;;;;;;;;5016738;28;20026;-57
2023/11/07 08:07:39;;;;;;;11.55;6.82;;;;;;;;;;5016712;28;20076;-56
2023/11/07 08:10:16;;;;;;;10.82;6.03;;;;;;;;;;5016577;28;20424;-56
2023/11/07 08:12:42;;;;;;;8.32;5.70;;;;;;;;;;5016472;28;20449;-57
2023/11/07 08:15:10;;;;;;;7.68;4.90;;;;;;;;;;5016457;28;20026;-56
2023/11/07 08:17:35;;;;;;;11.43;5.57;;;;;;;;;;5016441;28;20076;-56
2023/11/07 08:20:19;;;;;;;10.60;5.13;;;;;;;;;;5016414;28;20486;-56
2023/11/07 08:22:49;;;;;;;8.55;4.95;;;;;;;;;;5016376;28;20113;-56
2023/11/07 08:25:28;;;;;;;7.70;4.22;;;;;;;;;;5016237;28;20281;-56
2023/11/07 10:59:25;;;;;;;1.88;1.35;;;;;;;;;;5006340;28;20140;-56
2023/11/07 11:01:52;;;;;;;2.20;1.50;;;;;;;;;;4992116;28;20045;-56
2023/11/07 11:04:22;;;;;;;3.63;2.13;;;;;;;;;;5013730;28;20030;-56
2023/11/07 11:06:47;;;;;;;;;;;;;;;;;;5014191;28;20034;-56
2023/11/07 11:09:17;;;;;;;1.88;1.55;;;;;;;;;;5013794;28;19909;-56
2023/11/07 11:11:43;;;;;;;1.70;1.52;;;;;;;;;;5013678;28;20572;-56
2023/11/07 11:14:09;;;;;;;3.55;1.73;;;;;;;;;;5013533;28;20120;-56
2023/11/07 11:16:37;;;;;;;4.82;1.73;;;;;;;;;;5013746;28;20026;-56
2023/11/07 11:19:23;;;;;;;2.42;2.22;;;;;;;;;;4996102;28;20116;-56
2023/11/07 11:21:51;;;;;;;2.88;2.10;;;;;;;;;;4995913;28;20433;-56
2023/11/07 11:24:35;;;;;;;2.85;1.70;;;;;;;;;;5013568;28;20084;-56
2023/11/07 11:27:10;;;;;;;3.00;1.85;;;;;;;;;;5016084;28;20040;-56
2023/11/07 11:29:43;;;;;;;1.85;1.63;;;;;;;;;;5017479;28;20474;-56
2023/11/07 11:32:24;;;;;;;1.83;1.30;;;;;;;;;;5017372;28;20108;-56
2023/11/07 11:34:49;;;;;;;;;;;;;;;;;;5017687;28;20080;-56
2023/11/07 11:37:15;;;;;;;1.10;1.00;;;;;;;;;;5017251;28;20320;-56
2023/11/07 11:39:43;;;;;;;2.42;1.10;;;;;;;;;;5017264;28;20018;-56
2023/11/07 11:42:11;;;;;;;1.92;1.00;;;;;;;;;;5017225;28;20104;-56
2023/11/07 11:44:37;;;;;;;1.73;1.38;;;;;;;;;;5017101;28;20056;-56
2023/11/07 11:47:03;;;;;;;1.20;0.93;;;;;;;;;;4999651;28;20474;-56
2023/11/07 11:49:28;;;;;;;2.15;1.20;;;;;;;;;;5017093;28;20026;-56
2023/11/07 11:51:56;;;;;;;1.20;1.00;;;;;;;;;;5017024;28;20487;-56
2023/11/07 11:54:45;;;;;;;2.20;0.70;;;;;;;;;;5017084;28;20030;-56
2023/11/07 11:57:10;;;;;;;2.45;1.30;;;;;;;;;;4999230;28;20030;-56
2023/11/07 11:59:55;;;;;;;3.15;1.48;;;;;;;;;;5016902;28;20382;-56
2023/11/07 12:02:39;;;;;;;2.88;1.40;;;;;;;;;;5016847;28;20034;-56
2023/11/07 12:05:17;;;;;;;2.10;1.33;;;;;;;;;;5017045;28;20409;-56
2023/11/07 12:07:46;;;;;;;3.08;1.25;;;;;;;;;;5016864;28;20081;-56
2023/11/07 12:10:17;;;;;;;2.85;1.30;;;;;;;;;;5016781;28;20060;-56
2023/11/07 12:12:43;;;;;;;1.40;1.05;;;;;;;;;;5016657;28;20066;-56
2023/11/07 12:15:08;;;;;;;3.03;1.23;;;;;;;;;;5016656;28;20077;-56
2023/11/07 12:17:47;;;;;;;0.93;0.93;;;;;;;;;;5016651;28;20046;-56
2023/11/07 12:20:14;;;;;;;1.40;1.30;;;;;;;;;;5016554;28;20491;-56
2023/11/07 12:22:46;;;;;;;1.05;0.95;;;;;;;;;;5016355;28;20068;-56
2023/11/07 12:25:13;;;;;;;1.42;1.23;;;;;;;;;;5016444;28;20481;-56
2023/11/07 12:27:42;;;;;;;1.30;1.08;;;;;;;;;;5016384;28;20025;-55
2023/11/07 12:30:15;;;;;;;1.58;0.80;;;;;;;;;;5016413;28;20069;-56
2023/11/07 12:32:40;;;;;;;1.35;1.10;;;;;;;;;;5016485;28;20063;-56
2023/11/07 12:35:32;;;;;;;1.17;1.05;;;;;;;;;;5016093;28;20026;-56
2023/11/07 12:38:00;;;;;;;2.10;1.45;;;;;;;;;;4995199;28;20034;-56
2023/11/07 12:40:25;;;;;;;1.77;1.23;;;;;;;;;;5016218;28;20030;-56
2023/11/07 12:42:54;;;;;;;1.77;1.42;;;;;;;;;;5016232;28;20165;-56
2023/11/07 12:45:21;;;;;;;2.28;1.33;;;;;;;;;;4998441;28;20022;-56
2023/11/07 12:47:56;;;;;;;3.67;1.60;;;;;;;;;;4998507;28;20034;-56
2023/11/07 12:50:22;;;;;;;1.88;1.35;;;;;;;;;;5016150;28;20030;-56
2023/11/07 12:52:58;;;;;;;1.92;1.02;;;;;;;;;;5015845;28;20030;-56
2023/11/07 12:55:26;;;;;;;2.08;1.45;;;;;;;;;;5015934;28;20038;-56
2023/11/07 12:57:53;;;;;;;1.23;1.00;;;;;;;;;;4998611;28;20022;-55
2023/11/07 13:00:19;;;;;;;1.40;0.93;;;;;;;;;;5015602;28;20125;-56
2023/11/07 13:02:44;;;;;;;1.45;0.77;;;;;;;;;;5015724;28;20069;-56
2023/11/07 13:05:16;;;;;;;1.27;0.93;;;;;;;;;;5015641;28;20029;-56
2023/11/07 13:07:42;;;;;;;1.70;0.90;;;;;;;;;;5015530;28;20041;-56
2023/11/07 13:10:14;;;;;;;2.35;1.05;;;;;;;;;;5015531;28;20056;-56
2023/11/07 13:12:40;;;;;;;0.88;0.88;;;;;;;;;;5015475;28;20042;-56
2023/11/07 13:15:09;;;;;;;1.63;0.80;;;;;;;;;;5015385;28;20454;-56
2023/11/07 13:17:39;;;;;;;1.27;1.00;;;;;;;;;;5015412;28;20030;-56
2023/11/07 13:20:09;;;;;;;1.50;1.00;;;;;;;;;;5014334;28;20033;-56
2023/11/07 13:22:35;;;;;;;1.15;0.82;;;;;;;;;;5014367;28;20116;-56
2023/11/07 13:25:06;;;;;;;1.40;0.95;;;;;;;;;;5014315;28;20116;-56
2023/11/07 13:27:31;;;;;;;1.33;0.95;;;;;;;;;;5014238;28;20034;-56
2023/11/07 13:29:56;;;;;;;1.25;0.85;;;;;;;;;;5014179;28;20045;-56
2023/11/07 13:32:22;;;;;;;0.90;0.75;;;;;;;;;;5014178;28;20034;-56
2023/11/07 13:34:47;;;;;;;1.83;1.00;;;;;;;;;;5014029;28;20026;-56
2023/11/07 13:37:13;;;;;;;0.82;0.82;;;;;;;;;;4980276;28;20393;-56
2023/11/07 13:39:42;;;;;;;1.50;0.80;;;;;;;;;;5014013;28;20489;-56
2023/11/07 13:42:07;;;;;;;2.00;1.17;;;;;;;;;;4996447;28;20401;-56
2023/11/07 13:44:33;;;;;;;1.13;1.02;;;;;;;;;;4996464;28;20037;-56
2023/11/07 13:46:58;;;;;;;1.15;0.98;;;;;;;;;;5013855;28;20042;-56
2023/11/07 13:49:23;;;;;;;1.38;1.00;;;;;;;;;;4995857;28;20034;-56
2023/11/07 13:51:49;;;;;;;1.42;1.17;;;;;;;;;;5014496;28;20110;-56
2023/11/07 13:54:15;;;;;;;1.88;1.08;;;;;;;;;;5014830;28;20100;-56
2023/11/07 13:56:40;;;;;;;1.38;1.25;;;;;;;;;;5013401;28;20026;-56
2023/11/07 13:59:06;;;;;;;1.23;1.13;;;;;;;;;;5014588;28;20061;-56
2023/11/07 14:01:31;;;;;;;2.67;1.45;;;;;;;;;;5014445;28;20485;-56
2023/11/07 14:03:57;;;;;;;2.38;1.30;;;;;;;;;;5014858;28;20030;-56
2023/11/07 14:06:22;;;;;;;3.70;1.42;;;;;;;;;;5014799;28;20068;-56
2023/11/07 14:08:48;;;;;;;3.70;2.67;;;;;;;;;;5014339;28;20037;-56
2023/11/07 14:11:16;;;;;;;2.13;1.90;;;;;;;;;;5012559;28;20029;-56
2023/11/07 14:13:43;;;;;;;1.70;1.58;;;;;;;;;;5012480;28;20038;-56
2023/11/07 14:16:09;;;;;;;2.72;1.73;;;;;;;;;;5012607;28;20030;-56
2023/11/07 14:18:36;;;;;;;1.30;1.15;;;;;;;;;;5012828;28;20441;-56
2023/11/07 14:21:02;;;;;;;2.63;1.60;;;;;;;;;;5012817;28;20018;-56
2023/11/07 14:23:28;;;;;;;2.65;1.55;;;;;;;;;;5012875;28;20034;-56
2023/11/07 14:25:54;;;;;;;1.40;1.30;;;;;;;;;;5013847;28;20038;-56
2023/11/07 14:28:20;;;;;;;1.42;1.20;;;;;;;;;;5013960;28;20040;-56
2023/11/07 14:30:46;;;;;;;1.75;1.60;;;;;;;;;;4996954;28;20101;-56
2023/11/07 14:33:12;;;;;;;1.70;1.52;;;;;;;;;;4996643;28;20125;-56
2023/11/07 14:35:38;;;;;;;1.92;1.50;;;;;;;;;;5014180;28;20029;-56
2023/11/07 14:38:03;;;;;;;4.93;1.83;;;;;;;;;;5013890;28;20396;-56
2023/11/07 14:40:30;;;;;;;7.43;3.53;;;;;;;;;;5013699;28;20026;-56
2023/11/07 14:42:57;;;;;;;5.65;3.47;;;;;;;;;;5013759;28;20030;-56
2023/11/07 14:45:23;;;;;;;2.95;2.65;;;;;;;;;;5013710;28;20092;-61
2023/11/07 14:47:48;;;;;;;2.78;2.40;;;;;;;;;;4995976;28;20461;-60
2023/11/07 14:50:15;;;;;;;3.00;2.00;;;;;;;;;;5013612;28;20071;-56
2023/11/07 14:52:41;;;;;;;2.88;2.00;;;;;;;;;;5013455;28;20113;-56
2023/11/07 14:55:07;;;;;;;2.65;2.00;;;;;;;;;;5012424;28;20105;-56
2023/11/07 14:57:33;;;;;;;4.28;2.17;;;;;;;;;;5013387;28;20105;-56
2023/11/07 15:00:00;;;;;;;5.82;2.35;;;;;;;;;;5013066;28;20565;-56
2023/11/07 15:02:26;;;;;;;7.95;2.80;;;;;;;;;;5013007;28;20041;-56
2023/11/07 15:04:51;;;;;;;6.88;3.35;;;;;;;;;;5013524;28;20034;-56
2023/11/07 15:07:17;;;;;;;7.72;3.05;;;;;;;;;;5013507;28;20029;-66
2023/11/07 15:09:43;;;;;;;13.27;7.47;;;;;;;;;;5013512;28;20030;-56
2023/11/07 15:12:08;;;;;;;51.30;23.83;;;;;;;;;;5013192;28;20453;-57
2023/11/07 15:14:34;;;;;;;32.60;18.50;;;;;;;;;;5013127;28;20034;-57
2023/11/07 15:17:05;;;;;;;20.05;12.88;;;;;;;;;;4995936;28;20160;-57
2023/11/07 15:19:31;;;;;;;27.58;12.05;;;;;;;;;;5013138;28;20033;-57
2023/11/07 15:22:00;;;;;;;35.25;14.27;;;;;;;;;;5013458;28;20030;-57
2023/11/07 15:24:25;;;;;;;44.65;20.70;;;;;;;;;;5013452;28;20030;-57
2023/11/07 15:26:57;;;;;;;23.75;12.13;;;;;;;;;;5013124;28;20387;-57
2023/11/07 15:29:22;;;;;;;23.50;9.88;;;;;;;;;;5012337;28;20751;-57
2023/11/07 15:31:49;;;;;;;17.58;9.40;;;;;;;;;;5007679;28;20061;-56
2023/11/07 15:34:15;;;;;;;18.38;10.43;;;;;;;;;;5011105;28;20393;-56
2023/11/07 15:36:40;;;;;;;11.90;6.30;;;;;;;;;;5010730;28;20022;-56
2023/11/07 15:39:12;;;;;;;9.35;5.75;;;;;;;;;;5007733;28;20441;-61
2023/11/07 15:41:46;;;;;;;16.50;8.43;;;;;;;;;;5008565;28;20088;-56
2023/11/07 15:44:11;;;;;;;18.52;9.35;;;;;;;;;;5008188;28;20038;-56
2023/11/07 15:46:43;;;;;;;30.48;17.25;;;;;;;;;;5007863;28;20042;-56
2023/11/07 15:49:11;;;;;;;60.95;33.90;;;;;;;;;;5024540;28;20030;-61
2023/11/07 15:51:37;;;;;;;73.82;34.25;;;;;;;;;;5026452;28;20120;-56
2023/11/07 15:54:06;;;;;;;68.45;32.83;;;;;;;;;;5012192;28;20129;-57
2023/11/07 15:56:32;;;;;;;35.55;19.67;;;;;;;;;;5013220;28;20033;-56
2023/11/07 15:58:58;;;;;;;33.72;21.88;;;;;;;;;;5013085;28;20034;-56
2023/11/07 16:01:27;;;;;;;77.55;45.88;;;;;;;;;;5012680;28;20038;-56
2023/11/07 16:03:53;;;;;;;156.95;83.93;;;;;;;;;;5012176;28;20062;-57
2023/11/07 16:06:24;;;;;;;106.60;61.60;;;;;;;;;;5027683;28;20422;-56
2023/11/07 16:08:50;;;;;;;39.08;26.33;;;;;;;;;;5012292;28;20125;-56
2023/11/07 16:11:18;;;;;;;54.50;32.17;;;;;;;;;;5012160;28;20109;-56
2023/11/07 16:13:44;;;;;;;235.43;104.32;;;;;;;;;;5015079;28;20033;-56
2023/11/07 16:16:16;;;;;;;233.77;106.57;;;;;;;;;;5015387;28;20078;-56
2023/11/07 16:18:42;;;;;;;178.13;87.13;;;;;;;;;;5015295;28;20080;-56
2023/11/07 16:21:08;;;;;;;89.53;45.28;;;;;;;;;;5015270;28;20432;-56
2023/11/07 16:23:33;;;;;;;85.15;45.08;;;;;;;;;;5015211;28;20034;-57
2023/11/07 16:26:01;;;;;;;219.55;108.97;;;;;;;;;;5015145;28;20491;-56
2023/11/07 16:28:27;;;;;;;174.48;85.22;;;;;;;;;;5015137;28;20046;-61
2023/11/07 16:30:56;;;;;;;107.97;56.95;;;;;;;;;;5015266;28;20109;-61
2023/11/07 16:33:22;;;;;;;187.40;87.53;;;;;;;;;;5015136;28;20033;-61
2023/11/07 16:35:49;;;;;;;313.70;124.47;;;;;;;;;;5015053;28;20033;-61
2023/11/07 16:38:14;;;;;;;238.35;97.75;;;;;;;;;;5015048;28;20461;-61
2023/11/07 16:40:40;;;;;;;206.32;88.47;;;;;;;;;;5015167;28;20030;-61
2023/11/07 16:43:05;;;;;;;74.72;39.45;;;;;;;;;;5014974;28;20125;-61
2023/11/07 16:45:40;;;;;;;81.45;40.35;;;;;;;;;;5014980;28;20034;-61
2023/11/07 16:48:05;;;;;;;39.42;22.00;;;;;;;;;;5030086;28;20029;-61
2023/11/07 16:50:31;;;;;;;94.97;46.92;;;;;;;;;;5014831;28;20386;-56
2023/11/07 16:52:56;;;;;;;79.90;34.15;;;;;;;;;;5014867;28;20381;-56
2023/11/07 16:55:22;;;;;;;76.13;37.33;;;;;;;;;;5014934;28;20026;-56
2023/11/07 16:57:47;;;;;;;62.03;34.92;;;;;;;;;;5014773;28;20022;-56
2023/11/07 17:00:13;;;;;;;40.53;25.23;;;;;;;;;;4976050;28;1117338;-56
2023/11/07 17:02:39;;;;;;;48.03;34.85;;;;;;;;;;5015627;28;20026;-56
2023/11/07 17:05:06;;;;;;;32.92;20.25;;;;;;;;;;5015647;28;20034;-56
2023/11/07 17:07:31;;;;;;;25.45;19.20;;;;;;;;;;5015681;28;20026;-56
2023/11/07 17:09:57;;;;;;;79.93;44.45;;;;;;;;;;5015705;28;20125;-56
2023/11/07 17:12:22;;;;;;;149.65;69.60;;;;;;;;;;5015458;28;20061;-56
2023/11/07 17:14:47;;;;;;;140.55;65.78;;;;;;;;;;5030565;28;20124;-56
2023/11/07 17:17:14;;;;;;;101.43;49.40;;;;;;;;;;4997934;28;20033;-56
2023/11/07 17:19:41;;;;;;;79.03;37.25;;;;;;;;;;5015712;28;20463;-56
2023/11/07 17:22:06;;;;;;;86.47;42.97;;;;;;;;;;5015318;28;20034;-56
2023/11/07 17:24:32;;;;;;;98.00;48.72;;;;;;;;;;5014435;28;20063;-56
2023/11/07 17:26:58;;;;;;;95.65;47.67;;;;;;;;;;4997625;28;20026;-56
2023/11/07 17:29:24;;;;;;;91.90;46.28;;;;;;;;;;5015161;28;20042;-56
2023/11/07 17:31:50;;;;;;;82.30;44.25;;;;;;;;;;5015356;28;20068;-56
2023/11/07 17:34:16;;;;;;;38.28;21.67;;;;;;;;;;5015493;28;20053;-56
2023/11/07 17:36:41;;;;;;;48.35;27.38;;;;;;;;;;5014869;28;20457;-56
2023/11/07 17:39:15;;;;;;;33.00;17.63;;;;;;;;;;5013310;28;20457;-56
2023/11/07 17:41:41;;;;;;;39.00;23.25;;;;;;;;;;4995095;28;20061;-56
2023/11/07 17:44:06;;;;;;;54.58;29.83;;;;;;;;;;4994786;28;20168;-56
2023/11/07 17:46:32;;;;;;;66.40;36.38;;;;;;;;;;4994956;28;20117;-56
2023/11/07 17:48:57;;;;;;;75.13;40.60;;;;;;;;;;4994993;28;20049;-56